Time;durP1;ratioP1;P1;durP2;ratioP2;P2;SDS_P1;SDS_P2;PMS_P1;PMS_P2;Temp;Humidity;BMP_temperature;BMP_pressure;BME280_temperature;BME280_humidity;BME280_pressure;Samples;Min_cycle;Max_cycle;Signal;HPM_P1;HPM_P2
2022/07/22 00:01:02;;;;;;;0.99;0.52;;;;;;;18.78;68.58;99881.78;436392;121;930188;-77
2022/07/22 00:02:05;;;;;;;0.64;0.49;;;;;;;18.77;68.64;99886.48;436466;121;922644;-77
2022/07/22 00:03:10;;;;;;;1.84;0.43;;;;;;;18.78;68.72;99890.06;436288;121;930243;-77
2022/07/22 00:04:13;;;;;;;1.25;0.46;;;;;;;18.80;68.78;99890.62;436431;121;930922;-77
2022/07/22 00:05:16;;;;;;;0.61;0.59;;;;;;;18.80;68.78;99896.14;436581;121;923066;-77
2022/07/22 00:06:20;;;;;;;0.62;0.55;;;;;;;18.81;68.81;99895.00;436422;121;922464;-77
2022/07/22 00:07:23;;;;;;;1.11;0.61;;;;;;;18.83;68.87;99884.52;431957;121;923201;-77
2022/07/22 00:08:27;;;;;;;0.64;0.36;;;;;;;18.84;68.88;99886.17;430927;123;922529;-77
2022/07/22 00:09:30;;;;;;;0.69;0.57;;;;;;;18.86;68.87;99884.75;430958;123;922787;-78
2022/07/22 00:10:34;;;;;;;0.74;0.55;;;;;;;18.88;68.80;99884.48;430894;123;922659;-77
2022/07/22 00:11:37;;;;;;;0.72;0.61;;;;;;;18.90;68.78;99890.55;430980;123;923042;-78
2022/07/22 00:12:40;;;;;;;2.56;0.84;;;;;;;18.90;68.77;99891.38;430978;123;923015;-77
2022/07/22 00:13:45;;;;;;;0.52;0.39;;;;;;;18.92;68.75;99893.83;430984;123;922656;-77
2022/07/22 00:14:48;;;;;;;1.47;0.55;;;;;;;18.93;68.69;99882.50;431278;123;923100;-77
2022/07/22 00:15:51;;;;;;;0.61;0.49;;;;;;;18.94;68.57;99881.40;445084;119;923231;-77
2022/07/22 00:16:54;;;;;;;2.62;0.50;;;;;;;18.95;68.50;99882.23;445013;119;923040;-78
2022/07/22 00:17:58;;;;;;;0.59;0.36;;;;;;;18.94;68.41;99886.09;445076;119;922497;-77
2022/07/22 00:19:01;;;;;;;1.02;0.59;;;;;;;18.94;68.30;99886.09;445140;119;922582;-77
2022/07/22 00:20:06;;;;;;;2.47;0.55;;;;;;;18.92;68.30;99886.37;445083;119;922963;-77
2022/07/22 00:21:09;;;;;;;1.09;0.44;;;;;;;18.92;68.30;99885.55;444964;119;922851;-77
2022/07/22 00:22:14;;;;;;;0.48;0.46;;;;;;;18.91;68.27;99889.45;445075;119;922945;-77
2022/07/22 00:23:17;;;;;;;1.53;0.60;;;;;;;18.91;68.26;99881.16;429521;123;922862;-77
2022/07/22 00:24:20;;;;;;;0.46;0.44;;;;;;;18.90;68.23;99891.38;437075;121;923150;-77
2022/07/22 00:25:23;;;;;;;1.62;0.68;;;;;;;18.89;68.25;99886.13;437026;121;922527;-77
2022/07/22 00:26:28;;;;;;;1.14;0.67;;;;;;;18.87;68.19;99891.11;436933;121;922497;-77
2022/07/22 00:27:31;;;;;;;0.46;0.46;;;;;;;18.86;68.11;99895.80;437092;121;922589;-77
2022/07/22 00:28:34;;;;;;;1.91;0.82;;;;;;;18.84;68.13;99897.22;437074;121;923014;-77
2022/07/22 00:29:37;;;;;;;1.84;0.66;;;;;;;18.83;68.16;99888.09;437683;120;922532;-77
2022/07/22 00:30:41;;;;;;;1.54;0.66;;;;;;;18.83;68.24;99898.32;438567;120;922994;-77
2022/07/22 00:31:44;;;;;;;0.53;0.49;;;;;;;18.83;68.29;99892.80;439539;120;922947;-77
2022/07/22 00:32:47;;;;;;;1.23;0.51;;;;;;;18.82;68.31;99888.38;439553;120;923130;-77
2022/07/22 00:33:50;;;;;;;0.54;0.48;;;;;;;18.82;68.31;99893.91;439613;120;922957;-77
2022/07/22 00:34:54;;;;;;;0.57;0.57;;;;;;;18.81;68.32;99895.00;439455;120;922544;-77
2022/07/22 00:35:57;;;;;;;0.60;0.60;;;;;;;18.79;68.29;99892.55;439562;120;923056;-77
2022/07/22 00:37:00;;;;;;;3.42;0.72;;;;;;;18.78;68.28;99898.36;439565;120;923142;-77
2022/07/22 00:38:03;;;;;;;0.63;0.41;;;;;;;18.77;68.24;99896.70;452196;117;923241;-77
2022/07/22 00:39:06;;;;;;;0.81;0.56;;;;;;;18.74;68.26;99898.91;452023;117;922933;-77
2022/07/22 00:40:10;;;;;;;0.93;0.50;;;;;;;18.72;68.32;99906.67;448098;118;922487;-77
2022/07/22 00:41:14;;;;;;;0.85;0.61;;;;;;;18.71;68.33;99902.25;447988;118;930227;-77
2022/07/22 00:42:18;;;;;;;0.50;0.50;;;;;;;18.69;68.49;99900.88;448086;118;930252;-77
2022/07/22 00:43:23;;;;;;;0.79;0.56;;;;;;;18.66;68.54;99899.52;448022;118;930249;-77
2022/07/22 00:44:27;;;;;;;1.68;0.43;;;;;;;18.65;68.52;99906.15;448160;118;922769;-77
2022/07/22 00:45:30;;;;;;;0.39;0.30;;;;;;;18.64;68.54;99904.49;448068;118;930230;-77
2022/07/22 00:46:37;;;;;;;0.76;0.60;;;;;;;18.62;68.60;99901.21;448064;118;923057;-77
2022/07/22 00:47:40;;;;;;;2.23;0.51;;;;;;;18.62;68.72;99909.49;448047;118;922581;-77
2022/07/22 00:48:43;;;;;;;0.62;0.57;;;;;;;18.61;68.76;99907.83;448238;117;922579;-77
2022/07/22 00:49:47;;;;;;;0.79;0.49;;;;;;;18.60;68.77;99908.11;448230;118;922984;-78
2022/07/22 00:50:52;;;;;;;0.72;0.46;;;;;;;18.60;68.82;99908.94;448184;118;922545;-78
2022/07/22 00:51:55;;;;;;;0.52;0.50;;;;;;;18.58;68.85;99911.15;447999;118;922754;-78
2022/07/22 00:52:58;;;;;;;0.93;0.59;;;;;;;18.59;68.87;99906.45;448211;118;922526;-78
2022/07/22 00:54:03;;;;;;;0.56;0.56;;;;;;;18.58;68.95;99911.15;448205;118;923138;-78
2022/07/22 00:55:07;;;;;;;1.13;0.54;;;;;;;18.58;69.02;99907.59;448013;118;922965;-78
2022/07/22 00:56:11;;;;;;;0.96;0.56;;;;;;;18.58;69.07;99911.15;448750;118;922706;-78
2022/07/22 00:57:14;;;;;;;0.60;0.53;;;;;;;18.59;69.05;99918.33;440114;120;930169;-78
2022/07/22 00:58:17;;;;;;;1.80;0.60;;;;;;;18.59;69.09;99912.80;440117;120;922930;-78
2022/07/22 00:59:23;;;;;;;2.28;0.56;;;;;;;18.60;69.14;99911.70;439874;120;922618;-79
2022/07/22 01:00:27;;;;;;;0.62;0.62;;;;;;;18.61;69.18;99907.83;440127;120;923038;-78
2022/07/22 01:01:31;;;;;;;1.26;0.39;;;;;;;18.63;69.30;99913.08;431247;123;923580;-78
2022/07/22 01:02:35;;;;;;;0.44;0.39;;;;;;;18.63;69.26;99911.16;439736;118;922897;-78
2022/07/22 01:03:38;;;;;;;0.78;0.50;;;;;;;18.65;69.23;99911.67;448424;118;922682;-78
2022/07/22 01:04:43;;;;;;;0.59;0.59;;;;;;;18.65;69.16;99911.67;448270;118;923391;-79
2022/07/22 01:05:48;;;;;;;0.88;0.55;;;;;;;18.65;69.16;99910.84;448081;118;923102;-78
2022/07/22 01:06:51;;;;;;;1.46;0.57;;;;;;;18.65;69.20;99911.67;448384;118;923009;-78
2022/07/22 01:07:54;;;;;;;1.66;0.66;;;;;;;18.64;69.12;99907.25;448425;118;922833;-78
2022/07/22 01:08:58;;;;;;;0.69;0.59;;;;;;;18.64;69.19;99904.49;448442;118;922595;-78
2022/07/22 01:10:03;;;;;;;1.47;0.59;;;;;;;18.63;69.22;99905.62;448242;118;923148;-78
2022/07/22 01:11:09;;;;;;;1.55;0.49;;;;;;;18.64;69.22;99912.78;448306;118;922520;-79
2022/07/22 01:12:13;;;;;;;0.58;0.50;;;;;;;18.65;69.25;99908.91;447503;118;923081;-79
2022/07/22 01:13:16;;;;;;;1.26;0.84;;;;;;;18.64;69.22;99910.02;448350;118;922853;-76
2022/07/22 01:14:19;;;;;;;0.90;0.60;;;;;;;18.63;69.28;99908.39;448377;118;923174;-76
2022/07/22 01:15:22;;;;;;;1.76;0.60;;;;;;;18.63;69.25;99908.39;440843;120;923038;-76
2022/07/22 01:16:27;;;;;;;0.45;0.45;;;;;;;18.62;69.25;99909.49;440486;120;922948;-76
2022/07/22 01:17:31;;;;;;;0.75;0.73;;;;;;;18.61;69.29;99907.01;440907;120;923029;-77
2022/07/22 01:18:34;;;;;;;1.57;0.60;;;;;;;18.60;69.32;99910.88;440928;120;923064;-76
2022/07/22 01:19:38;;;;;;;0.85;0.55;;;;;;;18.58;69.38;99900.10;440801;120;922508;-76
2022/07/22 01:20:41;;;;;;;0.71;0.61;;;;;;;18.57;69.41;99901.23;440884;120;922942;-77
2022/07/22 01:21:44;;;;;;;0.95;0.62;;;;;;;18.57;69.48;99904.00;440799;120;922630;-77
2022/07/22 01:22:48;;;;;;;0.85;0.71;;;;;;;18.56;69.58;99909.80;440909;120;922796;-76
2022/07/22 01:23:52;;;;;;;0.68;0.64;;;;;;;18.56;69.53;99901.52;440746;120;922982;-78
2022/07/22 01:24:55;;;;;;;0.95;0.69;;;;;;;18.55;69.59;99897.09;440855;120;923036;-78
2022/07/22 01:25:59;;;;;;;0.93;0.70;;;;;;;18.53;69.62;99897.34;440800;120;922903;-78
2022/07/22 01:27:03;;;;;;;2.35;0.65;;;;;;;18.52;69.66;99895.71;440765;120;923308;-78
2022/07/22 01:28:06;;;;;;;1.74;0.81;;;;;;;18.53;69.72;99891.81;439305;120;923047;-78
2022/07/22 01:29:09;;;;;;;0.79;0.70;;;;;;;18.54;69.76;99889.89;439360;120;923033;-77
2022/07/22 01:30:13;;;;;;;0.69;0.66;;;;;;;18.54;69.82;99898.17;448186;117;922957;-78
2022/07/22 01:31:16;;;;;;;1.39;0.60;;;;;;;18.53;69.82;99886.30;448393;118;922961;-77
2022/07/22 01:32:20;;;;;;;2.72;0.81;;;;;;;18.53;69.87;99886.30;448359;118;923014;-78
2022/07/22 01:33:23;;;;;;;0.50;0.50;;;;;;;18.54;69.83;99892.64;448371;118;922709;-78
2022/07/22 01:34:27;;;;;;;0.69;0.59;;;;;;;18.53;69.78;99891.81;447262;117;922551;-77
2022/07/22 01:35:30;;;;;;;1.40;0.78;;;;;;;18.53;69.87;99897.34;447249;118;930199;-78
2022/07/22 01:36:33;;;;;;;0.71;0.70;;;;;;;18.53;69.82;99896.51;447277;118;923092;-77
2022/07/22 01:37:36;;;;;;;2.79;0.57;;;;;;;18.52;69.78;99892.95;447294;118;923086;-78
2022/07/22 01:38:40;;;;;;;0.97;0.71;;;;;;;18.52;69.87;99894.88;447257;118;923047;-78
2022/07/22 01:39:43;;;;;;;1.09;0.72;;;;;;;18.51;69.85;99893.23;447261;118;922521;-78
2022/07/22 01:40:46;;;;;;;0.91;0.79;;;;;;;18.52;69.96;99895.71;447320;118;922591;-78
2022/07/22 01:41:49;;;;;;;0.49;0.49;;;;;;;18.51;69.97;99888.53;447154;118;923093;-78
2022/07/22 01:42:53;;;;;;;0.74;0.64;;;;;;;18.52;70.02;99886.60;447249;118;924536;-78
2022/07/22 01:43:56;;;;;;;0.59;0.52;;;;;;;18.52;69.99;99892.13;447242;118;923170;-77
2022/07/22 01:44:59;;;;;;;0.94;0.70;;;;;;;18.50;69.99;99884.12;447268;118;923154;-77
2022/07/22 01:46:04;;;;;;;1.04;0.51;;;;;;;18.49;70.03;99885.22;447075;118;922922;-78
2022/07/22 01:47:09;;;;;;;1.28;0.89;;;;;;;18.49;70.09;99884.39;447125;118;922688;-78
2022/07/22 01:48:13;;;;;;;1.74;0.78;;;;;;;18.49;70.14;99890.73;447087;118;923105;-78
2022/07/22 01:49:16;;;;;;;0.86;0.79;;;;;;;18.48;70.23;99894.61;447128;118;923054;-78
2022/07/22 01:50:20;;;;;;;1.93;0.72;;;;;;;18.47;70.22;99886.63;447215;118;922848;-78
2022/07/22 01:51:23;;;;;;;0.93;0.78;;;;;;;18.46;70.24;99894.08;447258;118;923359;-77
2022/07/22 01:52:26;;;;;;;0.93;0.76;;;;;;;18.46;70.30;99888.56;447276;118;923536;-78
2022/07/22 01:53:29;;;;;;;1.82;0.80;;;;;;;18.47;70.31;99889.39;447272;118;922627;-78
2022/07/22 01:54:33;;;;;;;0.88;0.85;;;;;;;18.47;70.37;99887.42;447245;118;923089;-78
2022/07/22 01:55:36;;;;;;;0.99;0.86;;;;;;;18.47;70.35;99892.95;447120;118;922559;-78
2022/07/22 01:56:40;;;;;;;1.23;0.98;;;;;;;18.48;70.35;99891.02;447108;118;922657;-78
2022/07/22 01:57:43;;;;;;;1.41;0.72;;;;;;;18.47;70.41;99884.66;447241;118;923047;-78
2022/07/22 01:58:51;;;;;;;1.40;0.74;;;;;;;18.47;70.46;99887.42;446806;118;923334;-78
2022/07/22 01:59:56;;;;;;;0.94;0.92;;;;;;;18.48;70.39;99882.73;446835;118;922672;-78
2022/07/22 02:01:00;;;;;;;1.66;0.99;;;;;;;18.48;70.49;99889.08;447290;118;922463;-77
2022/07/22 02:02:03;;;;;;;1.84;0.99;;;;;;;18.48;70.55;99891.02;447129;118;923538;-77
2022/07/22 02:03:07;;;;;;;1.71;0.89;;;;;;;18.49;70.59;99893.50;447304;118;922949;-78
2022/07/22 02:04:10;;;;;;;1.24;1.02;;;;;;;18.49;70.70;99895.44;447206;118;923018;-78
2022/07/22 02:05:13;;;;;;;1.64;0.89;;;;;;;18.50;70.62;99891.57;438171;120;922731;-77
2022/07/22 02:06:18;;;;;;;0.98;0.80;;;;;;;18.48;70.64;99889.08;438723;118;923069;-78
2022/07/22 02:07:21;;;;;;;1.45;0.66;;;;;;;18.49;70.69;99884.39;448184;118;922503;-78
2022/07/22 02:08:25;;;;;;;1.84;1.10;;;;;;;18.48;70.77;99894.61;448347;118;923024;-77
2022/07/22 02:09:48;;;;;;;1.44;0.95;;;;;;;18.48;70.77;99894.61;448168;118;930297;-78
2022/07/22 02:10:53;;;;;;;1.02;0.88;;;;;;;18.49;70.82;99896.27;448206;118;922586;-78
2022/07/22 02:11:56;;;;;;;1.38;0.74;;;;;;;18.48;70.87;99897.36;448272;118;930227;-77
2022/07/22 02:12:59;;;;;;;2.20;0.91;;;;;;;18.49;70.88;99900.95;448300;118;922994;-77
2022/07/22 02:14:03;;;;;;;2.19;0.93;;;;;;;18.46;70.87;99896.84;448329;118;922957;-77
2022/07/22 02:15:06;;;;;;;1.07;0.85;;;;;;;18.46;70.87;99896.84;448421;118;923139;-77
2022/07/22 02:16:10;;;;;;;1.75;0.98;;;;;;;18.47;70.86;99903.20;448248;118;922638;-77
2022/07/22 02:17:16;;;;;;;1.09;0.85;;;;;;;18.45;70.86;99897.12;447177;118;922751;-77
2022/07/22 02:18:19;;;;;;;1.11;0.92;;;;;;;18.44;70.79;99904.56;448354;118;922489;-77
2022/07/22 02:19:22;;;;;;;1.73;0.83;;;;;;;18.44;70.80;99900.98;448330;118;930616;-78
2022/07/22 02:20:26;;;;;;;1.06;0.84;;;;;;;18.41;70.81;99901.56;448310;118;922990;-77
2022/07/22 02:21:30;;;;;;;1.04;0.61;;;;;;;18.42;70.87;99911.47;448316;118;922460;-77
2022/07/22 02:22:34;;;;;;;2.63;0.85;;;;;;;18.39;70.91;99907.36;448310;118;922789;-77
2022/07/22 02:23:37;;;;;;;4.08;0.72;;;;;;;18.38;70.89;99905.70;448367;118;930223;-77
2022/07/22 02:24:41;;;;;;;1.63;0.87;;;;;;;18.38;70.89;99904.87;448418;118;922484;-77
2022/07/22 02:25:44;;;;;;;1.21;1.07;;;;;;;18.37;70.90;99906.80;448412;118;922771;-76
2022/07/22 02:26:47;;;;;;;1.82;0.78;;;;;;;18.37;70.97;99908.73;450646;117;923234;-77
2022/07/22 02:27:50;;;;;;;0.92;0.82;;;;;;;18.36;70.96;99902.38;450681;117;922624;-76
2022/07/22 02:28:54;;;;;;;1.10;0.60;;;;;;;18.37;70.97;99905.97;441523;119;922559;-77
2022/07/22 02:29:58;;;;;;;2.07;0.90;;;;;;;18.37;70.94;99903.21;440079;119;923071;-77
2022/07/22 02:31:02;;;;;;;0.72;0.72;;;;;;;18.37;70.90;99905.97;448085;118;923013;-77
2022/07/22 02:32:05;;;;;;;0.69;0.69;;;;;;;18.37;70.94;99903.21;448237;118;930182;-77
2022/07/22 02:33:08;;;;;;;1.40;0.98;;;;;;;18.37;70.97;99906.80;440192;120;923051;-77
2022/07/22 02:34:12;;;;;;;2.01;0.98;;;;;;;18.37;71.00;99906.80;439377;120;922933;-77
2022/07/22 02:35:15;;;;;;;3.34;1.14;;;;;;;18.38;71.05;99905.70;438994;121;922540;-77
2022/07/22 02:36:19;;;;;;;1.72;0.84;;;;;;;18.39;71.11;99906.53;438927;121;930284;-77
2022/07/22 02:37:24;;;;;;;2.76;1.28;;;;;;;18.39;71.14;99907.36;438987;121;922539;-77
2022/07/22 02:38:28;;;;;;;1.59;0.90;;;;;;;18.40;71.22;99900.73;438973;121;923112;-77
2022/07/22 02:39:31;;;;;;;1.16;0.86;;;;;;;18.42;71.29;99901.25;438989;121;922655;-77
2022/07/22 02:40:34;;;;;;;1.91;0.96;;;;;;;18.43;71.26;99907.61;439020;121;922699;-77
2022/07/22 02:41:38;;;;;;;2.90;1.00;;;;;;;18.44;71.30;99903.74;429684;123;922578;-77
2022/07/22 02:42:42;;;;;;;3.34;1.23;;;;;;;18.45;71.29;99903.47;430150;121;922668;-77
2022/07/22 02:43:45;;;;;;;1.51;1.03;;;;;;;18.47;71.26;99903.20;430319;123;923103;-77
2022/07/22 02:44:48;;;;;;;2.31;0.90;;;;;;;18.48;71.19;99900.13;438628;118;923269;-77
2022/07/22 02:45:52;;;;;;;1.53;0.89;;;;;;;18.50;71.20;99897.92;438085;120;922603;-77
2022/07/22 02:46:55;;;;;;;1.07;0.95;;;;;;;18.52;71.23;99892.13;438414;118;930323;-77
2022/07/22 02:48:00;;;;;;;1.47;1.08;;;;;;;18.54;71.21;99899.03;446702;118;922570;-77
2022/07/22 02:49:04;;;;;;;0.97;0.83;;;;;;;18.57;71.20;99892.13;447204;118;922566;-77
2022/07/22 02:50:08;;;;;;;1.71;1.05;;;;;;;18.60;71.18;99899.83;438139;120;923157;-77
2022/07/22 02:51:11;;;;;;;1.06;0.91;;;;;;;18.62;71.16;99895.69;438555;118;922653;-77
2022/07/22 02:52:14;;;;;;;1.49;0.96;;;;;;;18.64;71.13;99893.45;447228;118;923103;-77
2022/07/22 02:53:18;;;;;;;1.21;0.88;;;;;;;18.66;71.06;99896.76;447178;118;922569;-77
2022/07/22 02:54:21;;;;;;;2.34;1.25;;;;;;;18.69;70.99;99893.42;447172;118;930265;-77
2022/07/22 02:55:25;;;;;;;3.24;1.22;;;;;;;18.70;70.90;99897.84;438194;120;922663;-77
2022/07/22 02:56:29;;;;;;;2.06;1.05;;;;;;;18.71;70.85;99899.49;438511;118;930231;-77
2022/07/22 02:57:33;;;;;;;1.84;1.12;;;;;;;18.73;70.85;99889.00;447148;118;922503;-77
2022/07/22 02:58:36;;;;;;;1.61;1.16;;;;;;;18.75;70.90;99894.21;447241;118;930293;-77
2022/07/22 02:59:39;;;;;;;2.40;1.39;;;;;;;18.79;70.85;99898.08;447244;118;922850;-77
2022/07/22 03:00:42;;;;;;;1.16;1.09;;;;;;;18.79;70.85;99898.08;447180;118;922573;-77
2022/07/22 03:01:45;;;;;;;2.19;1.29;;;;;;;18.80;70.72;99898.91;447138;118;922584;-77
2022/07/22 03:02:49;;;;;;;2.20;1.64;;;;;;;18.81;70.71;99892.24;447130;118;922932;-77
2022/07/22 03:03:52;;;;;;;2.29;1.26;;;;;;;18.83;70.67;99901.08;447180;118;923579;-77
2022/07/22 03:04:56;;;;;;;1.32;1.19;;;;;;;18.84;70.58;99900.81;447197;118;923059;-78
2022/07/22 03:05:59;;;;;;;1.66;1.43;;;;;;;18.85;70.59;99898.88;447237;118;930635;-78
2022/07/22 03:07:04;;;;;;;1.39;1.29;;;;;;;18.86;70.44;99895.80;446883;118;923045;-78
2022/07/22 03:08:08;;;;;;;1.41;1.29;;;;;;;18.86;70.39;99901.33;448376;118;922907;-78
2022/07/22 03:09:12;;;;;;;1.61;1.32;;;;;;;18.87;70.35;99900.22;448312;118;924926;-78
2022/07/22 03:10:17;;;;;;;3.74;1.37;;;;;;;18.87;70.42;99910.44;448074;118;922990;-77
2022/07/22 03:11:20;;;;;;;1.29;1.19;;;;;;;18.88;70.43;99907.41;448308;118;923438;-77
2022/07/22 03:12:23;;;;;;;2.09;1.31;;;;;;;18.90;70.44;99915.41;448376;118;923001;-77
2022/07/22 03:13:27;;;;;;;1.38;1.28;;;;;;;18.91;70.44;99912.34;448448;118;923014;-77
2022/07/22 03:14:30;;;;;;;2.01;1.29;;;;;;;18.94;70.40;99913.72;448339;118;922604;-77
2022/07/22 03:15:33;;;;;;;1.44;1.34;;;;;;;18.95;70.36;99910.68;448384;118;922567;-78
2022/07/22 03:16:37;;;;;;;2.02;1.76;;;;;;;18.97;70.33;99911.20;448344;118;922711;-77
2022/07/22 03:17:40;;;;;;;1.72;1.49;;;;;;;18.97;70.32;99908.44;448229;118;930343;-77
2022/07/22 03:18:43;;;;;;;3.56;1.32;;;;;;;18.98;70.34;99909.27;448398;118;923014;-78
2022/07/22 03:19:48;;;;;;;2.01;1.14;;;;;;;18.96;70.37;99914.27;448298;118;922920;-77
2022/07/22 03:20:51;;;;;;;1.53;1.18;;;;;;;18.96;70.28;99911.52;448318;118;930462;-77
2022/07/22 03:21:55;;;;;;;1.48;1.36;;;;;;;18.95;70.28;99913.44;448373;118;923096;-77
2022/07/22 03:22:59;;;;;;;1.84;1.72;;;;;;;18.96;70.31;99920.62;450444;117;923054;-77
2022/07/22 03:24:02;;;;;;;1.79;1.69;;;;;;;18.96;70.19;99912.34;441553;120;922613;-78
2022/07/22 03:25:07;;;;;;;1.88;1.71;;;;;;;18.95;70.23;99920.91;434663;120;922646;-78
2022/07/22 03:26:11;;;;;;;2.87;2.65;;;;;;;18.92;70.25;99915.94;442258;117;922839;-78
2022/07/22 03:27:14;;;;;;;2.11;1.99;;;;;;;18.90;70.30;99916.23;450647;117;922479;-77
2022/07/22 03:28:17;;;;;;;2.18;1.98;;;;;;;18.89;70.38;99913.76;450645;117;922676;-77
2022/07/22 03:29:20;;;;;;;2.28;1.68;;;;;;;18.86;70.37;99915.14;456060;111;923145;-77
2022/07/22 03:30:25;;;;;;;2.23;1.96;;;;;;;18.86;70.44;99911.55;458720;114;922845;-77
2022/07/22 03:31:29;;;;;;;2.36;2.16;;;;;;;18.86;70.45;99914.31;462729;114;922574;-77
2022/07/22 03:32:32;;;;;;;1.86;1.71;;;;;;;18.85;70.48;99916.28;462610;114;923118;-77
2022/07/22 03:33:35;;;;;;;2.29;1.67;;;;;;;18.86;70.46;99911.55;462405;114;923418;-77
2022/07/22 03:34:39;;;;;;;1.84;1.66;;;;;;;18.87;70.44;99915.97;454280;116;923140;-77
2022/07/22 03:35:43;;;;;;;1.95;1.81;;;;;;;18.87;70.49;99911.27;454242;116;922492;-78
2022/07/22 03:36:46;;;;;;;2.48;1.97;;;;;;;18.88;70.48;99909.34;454357;116;923105;-77
2022/07/22 03:37:49;;;;;;;1.96;1.85;;;;;;;18.89;70.45;99916.52;454328;116;922612;-77
2022/07/22 03:38:53;;;;;;;2.39;2.19;;;;;;;18.86;70.62;99917.07;454229;116;922624;-77
2022/07/22 03:39:58;;;;;;;2.19;2.09;;;;;;;18.83;70.41;99918.48;454189;116;922986;-78
2022/07/22 03:41:01;;;;;;;3.14;2.25;;;;;;;18.80;70.48;99921.00;454299;116;923003;-78
2022/07/22 03:42:06;;;;;;;2.55;2.15;;;;;;;18.77;70.62;99916.86;454301;116;922645;-78
2022/07/22 03:43:11;;;;;;;2.06;1.91;;;;;;;18.78;70.71;99920.45;454005;116;922984;-78
2022/07/22 03:44:14;;;;;;;2.26;2.07;;;;;;;18.77;70.84;99925.14;454351;116;922506;-78
2022/07/22 03:45:17;;;;;;;2.79;2.33;;;;;;;18.79;70.92;99924.87;454362;116;922526;-77
2022/07/22 03:46:22;;;;;;;4.38;2.56;;;;;;;18.79;70.97;99922.94;454214;116;922599;-78
2022/07/22 03:47:25;;;;;;;2.65;2.42;;;;;;;18.79;70.98;99922.11;454275;116;930605;-78
2022/07/22 03:48:29;;;;;;;2.37;2.17;;;;;;;18.79;71.03;99928.46;454395;116;922676;-77
2022/07/22 03:49:33;;;;;;;3.45;2.26;;;;;;;18.77;71.01;99925.14;451320;117;922811;-77
2022/07/22 03:50:36;;;;;;;3.97;2.48;;;;;;;18.77;71.10;99924.31;451589;116;923065;-78
2022/07/22 03:51:41;;;;;;;2.42;2.22;;;;;;;18.78;71.29;99923.21;454205;116;922534;-78
2022/07/22 03:52:44;;;;;;;3.21;2.54;;;;;;;18.76;71.11;99926.25;454226;116;930429;-78
2022/07/22 03:53:48;;;;;;;2.74;2.32;;;;;;;18.74;71.13;99923.77;454295;116;923060;-77
2022/07/22 03:54:51;;;;;;;2.99;2.72;;;;;;;18.77;71.25;99921.55;454356;116;923149;-78
2022/07/22 03:55:54;;;;;;;2.92;2.59;;;;;;;18.77;71.25;99921.55;454401;116;922487;-77
2022/07/22 03:56:58;;;;;;;3.17;2.93;;;;;;;18.79;71.33;99922.11;454358;116;923449;-78
2022/07/22 03:58:03;;;;;;;3.17;2.41;;;;;;;18.79;71.37;99925.70;451361;117;923227;-78
2022/07/22 03:59:06;;;;;;;2.84;2.44;;;;;;;18.79;71.46;99914.65;451557;116;923233;-78
2022/07/22 04:00:10;;;;;;;2.83;2.62;;;;;;;18.80;71.44;99918.23;454307;116;922582;-78
2022/07/22 04:01:16;;;;;;;3.48;2.50;;;;;;;18.80;71.44;99919.04;454081;116;922551;-77
2022/07/22 04:02:20;;;;;;;2.96;2.71;;;;;;;18.81;71.50;99917.10;454260;116;922863;-78
2022/07/22 04:03:23;;;;;;;2.40;2.24;;;;;;;18.82;71.42;99927.05;454329;116;930463;-77
2022/07/22 04:04:44;;;;;;;2.72;2.46;;;;;;;18.83;71.41;99917.66;454136;116;923042;-77
2022/07/22 04:05:47;;;;;;;2.71;2.52;;;;;;;18.83;71.43;99921.25;454334;116;923015;-78
2022/07/22 04:06:53;;;;;;;2.96;2.63;;;;;;;18.86;71.48;99917.07;454638;116;922595;-78
2022/07/22 04:07:58;;;;;;;3.50;2.73;;;;;;;18.87;71.50;99918.73;456076;116;923185;-78
2022/07/22 04:09:01;;;;;;;3.70;2.90;;;;;;;18.90;71.60;99921.77;456587;116;923053;-78
2022/07/22 04:10:05;;;;;;;2.67;2.45;;;;;;;18.93;71.46;99918.42;456500;116;922937;-78
2022/07/22 04:11:10;;;;;;;2.79;2.59;;;;;;;18.95;71.39;99918.14;456367;116;930275;-76
2022/07/22 04:12:15;;;;;;;2.82;2.54;;;;;;;18.96;71.41;99919.80;456419;116;922643;-76
2022/07/22 04:13:20;;;;;;;3.72;2.84;;;;;;;18.98;71.39;99926.67;454004;116;930534;-78
2022/07/22 04:14:25;;;;;;;2.88;2.68;;;;;;;19.01;71.31;99930.81;456518;114;923225;-78
2022/07/22 04:15:30;;;;;;;3.38;3.05;;;;;;;19.02;71.32;99932.47;462139;114;922536;-77
2022/07/22 04:16:34;;;;;;;2.69;2.50;;;;;;;19.04;71.35;99928.30;462314;114;923026;-77
2022/07/22 04:17:40;;;;;;;2.72;2.47;;;;;;;19.07;71.26;99936.03;461817;114;930317;-77
2022/07/22 04:18:43;;;;;;;2.64;2.44;;;;;;;19.08;71.21;99932.13;462401;114;922526;-77
2022/07/22 04:19:46;;;;;;;3.70;2.77;;;;;;;19.09;71.05;99938.48;462360;114;922904;-77
2022/07/22 04:20:51;;;;;;;2.56;2.26;;;;;;;19.10;70.96;99932.67;461428;114;923014;-77
2022/07/22 04:22:05;;;;;;;3.08;2.81;;;;;;;19.09;70.89;99930.19;461982;114;922391;-77
2022/07/22 04:23:08;;;;;;;2.73;2.27;;;;;;;19.09;70.77;99932.95;462392;114;922537;-76
2022/07/22 04:24:12;;;;;;;3.21;2.88;;;;;;;19.08;70.78;99934.89;462271;114;922890;-78
2022/07/22 04:25:15;;;;;;;3.08;2.73;;;;;;;19.07;70.82;99933.27;462383;114;922495;-78
2022/07/22 04:26:20;;;;;;;2.86;2.65;;;;;;;19.05;70.66;99932.71;454487;116;922986;-78
2022/07/22 04:27:23;;;;;;;3.14;2.94;;;;;;;19.03;70.71;99934.09;455002;114;922560;-77
2022/07/22 04:28:27;;;;;;;2.98;2.78;;;;;;;19.02;70.56;99929.70;462325;114;922926;-78
2022/07/22 04:29:31;;;;;;;2.82;2.62;;;;;;;18.99;70.65;99933.85;461253;114;923031;-78
2022/07/22 04:30:34;;;;;;;3.37;3.17;;;;;;;18.99;70.75;99933.03;458439;115;922567;-77
2022/07/22 04:31:37;;;;;;;4.61;2.92;;;;;;;18.99;70.88;99924.73;460729;115;923049;-78
2022/07/22 04:32:43;;;;;;;2.76;2.51;;;;;;;19.01;70.93;99925.28;460173;115;922646;-77
2022/07/22 04:33:46;;;;;;;3.36;2.61;;;;;;;19.04;70.92;99933.81;459074;115;922937;-77
2022/07/22 04:34:49;;;;;;;3.19;2.92;;;;;;;19.07;70.94;99932.44;452713;117;922527;-77
2022/07/22 04:35:52;;;;;;;3.31;2.54;;;;;;;19.09;70.91;99936.55;452793;117;923254;-77
2022/07/22 04:36:56;;;;;;;3.03;2.82;;;;;;;19.10;70.80;99934.61;452799;117;922545;-76
2022/07/22 04:37:59;;;;;;;2.62;2.42;;;;;;;19.12;70.72;99937.92;452810;117;923007;-77
2022/07/22 04:39:02;;;;;;;3.11;2.50;;;;;;;19.12;70.73;99932.40;449921;118;923182;-77
2022/07/22 04:40:06;;;;;;;2.88;2.27;;;;;;;19.13;70.74;99929.33;450058;117;923144;-78
2022/07/22 04:41:09;;;;;;;2.73;2.45;;;;;;;19.16;70.65;99934.30;452723;117;922447;-77
2022/07/22 04:42:12;;;;;;;3.12;2.14;;;;;;;19.20;70.69;99931.77;452807;117;922545;-77
2022/07/22 04:43:16;;;;;;;5.62;2.06;;;;;;;19.24;70.63;99930.08;452802;117;922737;-77
2022/07/22 04:44:19;;;;;;;2.76;2.24;;;;;;;19.29;70.55;99932.00;452752;117;922967;-77
2022/07/22 04:45:22;;;;;;;2.50;2.33;;;;;;;19.31;70.44;99933.34;452712;117;922858;-77
2022/07/22 04:46:26;;;;;;;2.76;2.53;;;;;;;19.36;70.33;99919.48;452707;117;930399;-77
2022/07/22 04:47:30;;;;;;;2.39;2.19;;;;;;;19.40;70.31;99930.81;452684;117;930327;-77
2022/07/22 04:48:34;;;;;;;2.41;2.19;;;;;;;19.44;70.15;99929.11;452731;117;930320;-76
2022/07/22 04:49:37;;;;;;;2.48;2.26;;;;;;;19.47;70.02;99926.61;452680;117;922908;-76
2022/07/22 04:50:41;;;;;;;2.50;1.96;;;;;;;19.52;69.62;99934.03;452640;117;923225;-77
2022/07/22 04:51:45;;;;;;;2.15;2.03;;;;;;;19.52;69.47;99928.51;452769;117;923002;-78
2022/07/22 04:52:51;;;;;;;2.18;2.05;;;;;;;19.55;69.42;99927.94;452314;117;923071;-78
2022/07/22 04:53:55;;;;;;;3.91;2.23;;;;;;;19.56;69.41;99927.66;452809;117;922882;-78
2022/07/22 04:54:59;;;;;;;2.21;1.96;;;;;;;19.60;69.30;99930.66;452677;117;923010;-78
2022/07/22 04:56:02;;;;;;;2.43;2.01;;;;;;;19.62;69.23;99931.20;452715;117;922998;-78
2022/07/22 04:57:06;;;;;;;2.79;2.59;;;;;;;19.63;69.12;99932.83;452621;117;930349;-77